createdAt,value
2022-09-27T00:00:30.956Z,9.76
2022-09-27T00:02:59.155Z,9.69
2022-09-27T00:05:28.574Z,9.87
2022-09-27T00:07:57.172Z,9.88
2022-09-27T00:10:25.415Z,9.76
2022-09-27T00:12:54.031Z,9.81
2022-09-27T00:15:22.507Z,9.80
2022-09-27T00:17:51.843Z,9.78
2022-09-27T00:20:21.334Z,9.81
2022-09-27T00:22:51.089Z,9.78
2022-09-27T00:25:18.980Z,9.74
2022-09-27T00:27:47.038Z,9.75
2022-09-27T00:30:15.177Z,9.69
2022-09-27T00:32:43.211Z,9.75
2022-09-27T00:35:11.230Z,9.68
2022-09-27T00:37:39.375Z,9.73
2022-09-27T00:40:09.710Z,9.74
2022-09-27T00:42:37.743Z,9.83
2022-09-27T00:45:18.144Z,9.72
2022-09-27T00:47:53.008Z,9.69
2022-09-27T00:50:33.473Z,9.71
2022-09-27T00:53:11.254Z,9.71
2022-09-27T00:55:44.738Z,9.72
2022-09-27T00:58:14.958Z,9.72
2022-09-27T01:00:46.708Z,9.68
2022-09-27T01:03:23.586Z,9.76
2022-09-27T01:05:52.171Z,9.72
2022-09-27T01:08:20.246Z,9.69
2022-09-27T01:11:01.669Z,9.68
2022-09-27T01:13:38.103Z,9.64
2022-09-27T01:16:14.049Z,9.71
2022-09-27T01:18:58.264Z,9.67
2022-09-27T01:21:45.904Z,9.61
2022-09-27T01:24:49.597Z,9.62
2022-09-27T01:27:50.078Z,9.58
2022-09-27T01:30:24.525Z,9.59
2022-09-27T01:33:07.063Z,9.59
2022-09-27T01:35:41.021Z,9.56
2022-09-27T01:38:18.700Z,9.58
2022-09-27T01:40:53.602Z,9.60
2022-09-27T01:43:47.847Z,9.63
2022-09-27T01:46:24.678Z,9.62
2022-09-27T01:49:18.462Z,9.60
2022-09-27T01:51:53.026Z,9.58
2022-09-27T01:54:28.719Z,9.57
2022-09-27T01:57:21.003Z,9.55
2022-09-27T01:59:54.523Z,9.55
2022-09-27T02:03:00.444Z,9.58
2022-09-27T02:05:35.007Z,9.57
2022-09-27T02:08:29.237Z,9.57
2022-09-27T02:11:03.444Z,9.57
2022-09-27T02:13:38.963Z,9.57
2022-09-27T02:16:35.433Z,9.59
2022-09-27T02:19:11.504Z,9.62
2022-09-27T02:21:45.431Z,9.57
2022-09-27T02:24:18.246Z,9.59
2022-09-27T02:26:50.682Z,9.61
2022-09-27T02:29:24.179Z,9.55
2022-09-27T02:31:54.812Z,9.61
2022-09-27T02:34:27.368Z,9.61
2022-09-27T02:36:56.189Z,9.60
2022-09-27T02:39:25.758Z,9.59
2022-09-27T02:42:06.494Z,9.67
2022-09-27T02:44:35.382Z,9.64
2022-09-27T02:47:25.710Z,9.59
2022-09-27T02:50:17.098Z,9.58
2022-09-27T02:52:57.764Z,9.57
2022-09-27T02:55:47.799Z,9.55
2022-09-27T02:58:55.300Z,9.58
2022-09-27T03:02:07.531Z,9.60
2022-09-27T03:04:55.424Z,9.64
2022-09-27T03:07:25.881Z,9.64
2022-09-27T03:09:56.368Z,9.60
2022-09-27T03:12:26.743Z,9.61
2022-09-27T03:14:57.486Z,9.72
2022-09-27T03:18:04.540Z,9.65
2022-09-27T03:20:50.944Z,9.58
2022-09-27T03:23:22.446Z,9.69
2022-09-27T03:25:51.664Z,9.61
2022-09-27T03:28:20.532Z,9.64
2022-09-27T03:30:49.599Z,9.66
2022-09-27T03:33:40.178Z,9.63
2022-09-27T03:36:12.482Z,9.67
2022-09-27T03:38:42.060Z,9.66
2022-09-27T03:41:13.562Z,9.63
2022-09-27T03:43:42.447Z,9.63
2022-09-27T03:46:10.518Z,9.63
2022-09-27T03:48:39.621Z,9.64
2022-09-27T03:51:08.374Z,9.64
2022-09-27T03:53:36.503Z,9.66
2022-09-27T03:56:07.541Z,9.65
2022-09-27T03:58:35.894Z,9.61
2022-09-27T04:01:04.999Z,9.64
2022-09-27T04:03:36.021Z,9.58
2022-09-27T04:06:25.476Z,9.58
2022-09-27T04:08:54.312Z,9.60
2022-09-27T04:11:26.860Z,9.59
2022-09-27T04:13:56.173Z,9.63
2022-09-27T04:16:25.288Z,9.59
2022-09-27T04:19:09.196Z,9.54
2022-09-27T04:21:40.417Z,9.54
2022-09-27T04:24:11.799Z,9.55
2022-09-27T04:26:42.691Z,9.54
2022-09-27T04:29:15.928Z,9.48
2022-09-27T04:31:50.347Z,9.47
2022-09-27T04:34:58.738Z,9.47
2022-09-27T04:37:28.894Z,9.41
2022-09-27T04:40:03.243Z,9.37
2022-09-27T04:42:33.994Z,9.38
2022-09-27T04:45:02.051Z,9.43
2022-09-27T04:47:30.489Z,9.43
2022-09-27T04:49:58.585Z,9.44
2022-09-27T04:52:26.865Z,9.44
2022-09-27T04:54:54.908Z,9.44
2022-09-27T04:57:23.120Z,9.41
2022-09-27T04:59:52.756Z,9.40
2022-09-27T05:02:20.954Z,9.35
2022-09-27T05:04:59.474Z,9.33
2022-09-27T05:07:35.692Z,9.34
2022-09-27T05:10:10.077Z,9.26
2022-09-27T05:12:38.578Z,9.28
2022-09-27T05:15:09.942Z,9.25
2022-09-27T05:17:41.016Z,9.20
2022-09-27T05:20:38.954Z,9.19
2022-09-27T05:23:15.472Z,9.23
2022-09-27T05:25:43.776Z,9.22
2022-09-27T05:28:12.472Z,9.19
2022-09-27T05:30:42.060Z,9.19
2022-09-27T05:33:16.362Z,9.26
2022-09-27T05:35:47.540Z,9.23
2022-09-27T05:38:15.841Z,9.26
2022-09-27T05:40:50.904Z,9.26
2022-09-27T05:43:19.939Z,9.27
2022-09-27T05:45:50.190Z,9.32
2022-09-27T05:48:20.363Z,9.43
2022-09-27T05:50:57.705Z,9.45
2022-09-27T05:53:26.082Z,9.56
2022-09-27T05:55:55.039Z,9.60
2022-09-27T05:58:31.260Z,9.68
2022-09-27T06:01:12.912Z,9.78
2022-09-27T06:04:00.749Z,9.86
2022-09-27T06:06:38.334Z,9.90
2022-09-27T06:09:11.355Z,9.99
2022-09-27T06:11:43.044Z,10.02
2022-09-27T06:14:14.794Z,10.01
2022-09-27T06:17:08.332Z,9.99
2022-09-27T06:19:40.827Z,9.95
2022-09-27T06:22:09.386Z,9.87
2022-09-27T06:24:48.059Z,10.02
2022-09-27T06:27:21.847Z,10.10
2022-09-27T06:30:14.796Z,10.29
2022-09-27T06:32:58.773Z,10.59
2022-09-27T06:35:32.917Z,10.75
2022-09-27T06:38:04.840Z,10.72
2022-09-27T06:40:33.733Z,10.65
2022-09-27T06:43:11.715Z,10.57
2022-09-27T06:46:06.275Z,10.51
2022-09-27T06:48:55.419Z,10.45
2022-09-27T06:51:23.519Z,10.55
2022-09-27T06:53:51.741Z,10.59
2022-09-27T06:56:20.714Z,10.54
2022-09-27T06:59:10.883Z,10.52
2022-09-27T07:01:45.316Z,10.47
2022-09-27T07:04:33.583Z,10.44
2022-09-27T07:07:16.118Z,10.47
2022-09-27T07:09:49.087Z,10.51
2022-09-27T07:12:17.636Z,10.49
2022-09-27T07:14:45.754Z,10.49
2022-09-27T07:17:16.612Z,10.52
2022-09-27T07:19:51.309Z,10.49
2022-09-27T07:22:19.671Z,10.56
2022-09-27T07:24:53.846Z,10.59
2022-09-27T07:27:24.762Z,10.67
2022-09-27T07:29:52.858Z,10.74
2022-09-27T07:32:21.662Z,10.76
2022-09-27T07:34:51.327Z,10.70
2022-09-27T07:37:19.498Z,10.86
2022-09-27T07:39:48.357Z,10.88
2022-09-27T07:42:16.512Z,11.01
2022-09-27T07:44:48.036Z,10.92
2022-09-27T07:47:29.298Z,10.94
2022-09-27T07:50:11.462Z,10.94
2022-09-27T07:52:50.996Z,10.81
2022-09-27T07:55:37.183Z,10.79
2022-09-27T07:58:12.236Z,10.75
2022-09-27T08:00:41.864Z,10.58
2022-09-27T08:03:15.854Z,10.65
2022-09-27T08:05:47.157Z,10.69
2022-09-27T08:08:16.565Z,10.76
2022-09-27T08:10:46.669Z,11.13
2022-09-27T08:13:19.878Z,10.99
2022-09-27T08:15:52.350Z,11.13
2022-09-27T08:18:21.956Z,11.05
2022-09-27T08:20:58.792Z,11.13
2022-09-27T08:23:50.266Z,11.19
2022-09-27T08:26:25.125Z,11.26
2022-09-27T08:28:56.883Z,11.45
2022-09-27T08:31:29.053Z,11.33
2022-09-27T08:33:58.883Z,11.44
2022-09-27T08:36:30.705Z,11.52
2022-09-27T08:38:59.669Z,11.54
2022-09-27T08:41:39.786Z,11.72
2022-09-27T08:44:17.993Z,11.58
2022-09-27T08:47:12.291Z,11.92
2022-09-27T08:49:44.549Z,12.14
2022-09-27T08:52:19.336Z,12.38
2022-09-27T08:54:50.089Z,12.68
2022-09-27T08:57:18.794Z,12.80
2022-09-27T08:59:57.314Z,13.26
2022-09-27T09:02:26.399Z,12.94
2022-09-27T09:05:00.186Z,12.98
2022-09-27T09:07:42.628Z,12.63
2022-09-27T09:10:41.843Z,12.94
2022-09-27T09:13:19.566Z,12.84
2022-09-27T09:15:58.431Z,13.06
2022-09-27T09:18:42.245Z,13.09
2022-09-27T09:21:25.608Z,13.28
2022-09-27T09:24:14.041Z,13.30
2022-09-27T09:26:51.349Z,13.15
2022-09-27T09:29:33.062Z,12.81
2022-09-27T09:32:11.530Z,12.36
2022-09-27T09:34:44.065Z,12.41
2022-09-27T09:37:17.625Z,12.37
2022-09-27T09:39:52.580Z,12.61
2022-09-27T09:42:26.540Z,12.79
2022-09-27T09:45:00.272Z,12.75
2022-09-27T09:47:37.311Z,12.77
2022-09-27T09:50:19.167Z,12.74
2022-09-27T09:52:51.675Z,12.72
2022-09-27T09:55:25.129Z,13.11
2022-09-27T09:58:02.986Z,13.64
2022-09-27T10:00:41.222Z,14.26
2022-09-27T10:03:09.231Z,14.46
2022-09-27T10:05:37.692Z,14.09
2022-09-27T10:08:17.166Z,13.71
2022-09-27T10:10:47.721Z,13.21
2022-09-27T10:13:42.009Z,12.68
2022-09-27T10:16:12.852Z,12.57
2022-09-27T10:18:49.066Z,12.54
2022-09-27T10:21:23.013Z,12.82
2022-09-27T10:24:06.316Z,13.00
2022-09-27T10:27:02.094Z,12.95
2022-09-27T10:29:37.599Z,13.10
2022-09-27T10:32:23.422Z,13.32
2022-09-27T10:34:54.117Z,13.47
2022-09-27T10:37:23.827Z,13.32
2022-09-27T10:40:28.267Z,13.24
2022-09-27T10:42:59.462Z,13.23
2022-09-27T10:45:41.268Z,13.19
2022-09-27T10:48:22.454Z,13.01
2022-09-27T10:51:00.784Z,13.05
2022-09-27T10:53:48.471Z,13.15
2022-09-27T10:56:32.291Z,13.14
2022-09-27T10:59:05.226Z,13.51
2022-09-27T11:01:41.850Z,13.72
2022-09-27T11:04:27.776Z,14.04
2022-09-27T11:07:08.527Z,13.81
2022-09-27T11:09:47.195Z,13.84
2022-09-27T11:12:20.439Z,13.84
2022-09-27T11:15:00.047Z,13.85
2022-09-27T11:17:35.780Z,13.76
2022-09-27T11:20:26.517Z,13.70
2022-09-27T11:23:30.177Z,13.72
2022-09-27T11:26:14.621Z,13.56
2022-09-27T11:28:53.858Z,13.67
2022-09-27T11:32:15.596Z,13.94
2022-09-27T11:35:21.386Z,14.10
2022-09-27T11:37:58.010Z,14.03
2022-09-27T11:40:47.891Z,13.90
2022-09-27T11:43:43.046Z,13.44
2022-09-27T11:46:29.207Z,13.55
2022-09-27T11:49:27.268Z,13.80
2022-09-27T11:52:13.471Z,14.04
2022-09-27T11:54:55.866Z,13.83
2022-09-27T11:57:31.552Z,13.95
2022-09-27T12:00:19.512Z,14.08
2022-09-27T12:03:30.237Z,13.92
2022-09-27T12:06:08.690Z,13.88
2022-09-27T12:09:02.690Z,13.81
2022-09-27T12:11:38.484Z,14.16
2022-09-27T12:14:12.639Z,14.46
2022-09-27T12:16:42.836Z,14.83
2022-09-27T12:19:19.182Z,14.60
2022-09-27T12:22:12.744Z,14.69
2022-09-27T12:24:44.740Z,14.95
2022-09-27T12:27:38.389Z,14.39
2022-09-27T12:30:12.705Z,14.49
2022-09-27T12:32:50.923Z,14.74
2022-09-27T12:35:23.266Z,14.98
2022-09-27T12:38:00.439Z,15.11
2022-09-27T12:40:32.771Z,14.97
2022-09-27T12:43:09.071Z,14.84
2022-09-27T12:46:13.110Z,14.94
2022-09-27T12:48:53.875Z,14.76
2022-09-27T12:51:24.036Z,14.68
2022-09-27T12:54:24.833Z,14.74
2022-09-27T12:57:00.503Z,14.43
2022-09-27T12:59:42.190Z,14.46
2022-09-27T13:03:14.086Z,14.48
2022-09-27T13:06:17.258Z,14.49
2022-09-27T13:09:12.322Z,14.56
2022-09-27T13:11:52.307Z,14.33
2022-09-27T13:14:24.898Z,14.42
2022-09-27T13:16:53.442Z,14.34
2022-09-27T13:19:42.636Z,14.55
2022-09-27T13:22:38.401Z,14.34
2022-09-27T13:25:55.461Z,13.83
2022-09-27T13:29:03.250Z,13.39
2022-09-27T13:32:22.618Z,12.51
2022-09-27T13:35:20.638Z,12.05
2022-09-27T13:37:58.953Z,12.14
2022-09-27T13:40:43.613Z,12.29
2022-09-27T13:43:37.198Z,12.47
2022-09-27T13:46:20.533Z,12.67
2022-09-27T13:48:56.765Z,12.81
2022-09-27T13:51:36.110Z,12.90
2022-09-27T13:54:10.336Z,13.18
2022-09-27T13:56:53.861Z,13.42
2022-09-27T13:59:34.367Z,13.69
2022-09-27T14:02:26.732Z,13.88
2022-09-27T14:05:00.943Z,13.72
2022-09-27T14:07:36.457Z,13.95
2022-09-27T14:10:05.996Z,13.79
2022-09-27T14:12:40.886Z,13.95
2022-09-27T14:15:20.474Z,13.57
2022-09-27T14:17:50.222Z,13.69
2022-09-27T14:20:34.507Z,13.57
2022-09-27T14:23:05.033Z,13.39
2022-09-27T14:25:40.270Z,13.40
2022-09-27T14:28:21.603Z,13.37
2022-09-27T14:31:08.799Z,13.31
2022-09-27T14:33:51.062Z,13.52
2022-09-27T14:36:44.553Z,13.55
2022-09-27T14:39:15.938Z,13.39
2022-09-27T14:41:46.357Z,13.29
2022-09-27T14:44:20.977Z,13.16
2022-09-27T14:47:09.245Z,13.19
2022-09-27T14:49:48.014Z,13.55
2022-09-27T14:52:24.152Z,13.84
2022-09-27T14:55:03.283Z,13.97
2022-09-27T14:57:34.192Z,14.10
2022-09-27T15:00:16.655Z,13.75
2022-09-27T15:02:45.409Z,13.16
2022-09-27T15:05:17.679Z,12.93
2022-09-27T15:07:46.964Z,12.76
2022-09-27T15:10:18.152Z,12.78
2022-09-27T15:12:49.032Z,12.54
2022-09-27T15:15:22.342Z,12.36
2022-09-27T15:17:51.041Z,12.14
2022-09-27T15:20:26.007Z,12.19
2022-09-27T15:22:54.506Z,12.17
2022-09-27T15:25:32.305Z,12.16
2022-09-27T15:28:02.461Z,12.01
2022-09-27T15:30:36.726Z,11.99
2022-09-27T15:33:05.634Z,11.88
2022-09-27T15:35:36.943Z,11.99
2022-09-27T15:38:26.289Z,11.76
2022-09-27T15:41:07.051Z,11.61
2022-09-27T15:43:39.312Z,11.54
2022-09-27T15:46:27.386Z,11.40
2022-09-27T15:49:22.641Z,11.34
2022-09-27T15:51:53.255Z,11.33
2022-09-27T15:54:22.068Z,11.30
2022-09-27T15:56:55.252Z,11.45
2022-09-27T15:59:25.624Z,11.34
2022-09-27T16:01:56.672Z,11.35
2022-09-27T16:04:26.144Z,11.28
2022-09-27T16:06:55.746Z,11.21
2022-09-27T16:09:23.696Z,11.21
2022-09-27T16:11:51.923Z,11.03
2022-09-27T16:14:20.887Z,10.83
2022-09-27T16:16:51.690Z,10.94
2022-09-27T16:19:19.712Z,10.91
2022-09-27T16:21:48.898Z,10.86
2022-09-27T16:24:18.216Z,10.77
2022-09-27T16:26:46.204Z,10.77
2022-09-27T16:29:16.646Z,10.75
2022-09-27T16:31:45.609Z,10.76
2022-09-27T16:34:14.370Z,10.71
2022-09-27T16:36:42.391Z,10.71
2022-09-27T16:39:13.641Z,10.63
2022-09-27T16:41:43.551Z,10.66
2022-09-27T16:44:12.371Z,10.58
2022-09-27T16:46:42.099Z,10.48
2022-09-27T16:49:30.319Z,10.40
2022-09-27T16:52:00.679Z,10.30
2022-09-27T16:54:29.203Z,10.33
2022-09-27T16:56:59.555Z,10.39
2022-09-27T16:59:27.672Z,10.37
2022-09-27T17:01:57.180Z,10.26
2022-09-27T17:04:25.517Z,10.26
2022-09-27T17:06:53.498Z,10.17
2022-09-27T17:09:21.810Z,10.08
2022-09-27T17:11:50.031Z,10.01
2022-09-27T17:14:19.678Z,9.93
2022-09-27T17:16:49.047Z,9.94
2022-09-27T17:19:18.340Z,9.86
2022-09-27T17:21:46.877Z,9.78
2022-09-27T17:24:14.931Z,9.71
2022-09-27T17:26:43.778Z,9.65
2022-09-27T17:29:12.643Z,9.67
2022-09-27T17:31:43.301Z,9.67
2022-09-27T17:34:13.812Z,9.73
2022-09-27T17:36:44.197Z,9.84
2022-09-27T17:39:13.825Z,9.98
2022-09-27T17:41:42.311Z,10.02
2022-09-27T17:44:13.653Z,9.86
2022-09-27T17:46:43.241Z,9.90
2022-09-27T17:49:29.314Z,9.89
2022-09-27T17:51:57.639Z,9.79
2022-09-27T17:54:27.855Z,9.73
2022-09-27T17:56:56.267Z,9.75
2022-09-27T17:59:24.235Z,9.65
2022-09-27T18:01:53.598Z,9.59
2022-09-27T18:04:21.742Z,9.51
2022-09-27T18:06:49.928Z,9.44
2022-09-27T18:09:18.714Z,9.57
2022-09-27T18:11:47.161Z,9.48
2022-09-27T18:14:15.284Z,9.50
2022-09-27T18:16:44.155Z,9.44
2022-09-27T18:19:15.837Z,9.36
2022-09-27T18:21:44.116Z,9.28
2022-09-27T18:24:14.007Z,9.22
2022-09-27T18:26:42.390Z,9.26
2022-09-27T18:29:12.692Z,9.16
2022-09-27T18:31:47.390Z,9.09
2022-09-27T18:34:18.181Z,9.04
2022-09-27T18:36:46.884Z,8.99
2022-09-27T18:39:19.006Z,8.99
2022-09-27T18:41:48.576Z,9.03
2022-09-27T18:44:17.478Z,8.98
2022-09-27T18:46:45.793Z,9.10
2022-09-27T18:49:15.329Z,8.99
2022-09-27T18:51:46.932Z,8.94
2022-09-27T18:54:16.983Z,8.90
2022-09-27T18:56:45.143Z,8.84
2022-09-27T18:59:13.327Z,8.73
2022-09-27T19:01:45.054Z,8.66
2022-09-27T19:04:20.472Z,8.56
2022-09-27T19:06:52.890Z,8.50
2022-09-27T19:09:21.102Z,8.45
2022-09-27T19:11:49.246Z,8.39
2022-09-27T19:14:19.768Z,8.42
2022-09-27T19:16:48.518Z,8.39
2022-09-27T19:19:17.203Z,8.36
2022-09-27T19:21:45.446Z,8.34
2022-09-27T19:24:15.874Z,8.29
2022-09-27T19:26:44.078Z,8.24
2022-09-27T19:29:12.867Z,8.16
2022-09-27T19:31:42.935Z,8.12
2022-09-27T19:34:11.776Z,8.03
2022-09-27T19:36:39.996Z,7.91
2022-09-27T19:39:07.967Z,7.86
2022-09-27T19:41:37.502Z,7.85
2022-09-27T19:44:06.662Z,7.72
2022-09-27T19:46:34.660Z,7.68
2022-09-27T19:49:02.743Z,7.59
2022-09-27T19:51:31.146Z,7.53
2022-09-27T19:53:59.186Z,7.47
2022-09-27T19:56:27.229Z,7.47
2022-09-27T19:58:56.542Z,7.47
2022-09-27T20:01:26.144Z,7.44
2022-09-27T20:03:56.663Z,7.43
2022-09-27T20:06:24.789Z,7.46
2022-09-27T20:08:52.854Z,7.60
2022-09-27T20:11:22.222Z,7.59
2022-09-27T20:13:52.551Z,7.63
2022-09-27T20:16:23.893Z,7.62
2022-09-27T20:18:53.531Z,7.57
2022-09-27T20:21:23.574Z,7.59
2022-09-27T20:23:53.285Z,7.57
2022-09-27T20:26:23.146Z,7.59
2022-09-27T20:28:52.895Z,7.63
2022-09-27T20:31:23.961Z,7.67
2022-09-27T20:33:52.524Z,7.74
2022-09-27T20:36:22.437Z,7.77
2022-09-27T20:38:52.321Z,7.80
2022-09-27T20:41:21.460Z,7.84
2022-09-27T20:43:52.442Z,7.88
2022-09-27T20:46:22.804Z,7.91
2022-09-27T20:48:55.101Z,7.95
2022-09-27T20:51:24.040Z,8.00
2022-09-27T20:53:52.633Z,8.03
2022-09-27T20:56:22.445Z,8.09
2022-09-27T20:58:52.767Z,8.11
2022-09-27T21:01:23.457Z,8.16
2022-09-27T21:03:59.727Z,8.24
2022-09-27T21:06:28.505Z,8.24
2022-09-27T21:08:56.794Z,8.26
2022-09-27T21:11:27.229Z,8.34
2022-09-27T21:13:55.700Z,8.32
2022-09-27T21:16:26.728Z,8.46
2022-09-27T21:18:56.567Z,8.41
2022-09-27T21:21:25.750Z,8.41
2022-09-27T21:23:55.445Z,8.43
2022-09-27T21:26:23.769Z,8.49
2022-09-27T21:28:53.196Z,8.43
2022-09-27T21:31:24.080Z,8.44
2022-09-27T21:33:54.964Z,8.38
2022-09-27T21:36:24.328Z,8.41
2022-09-27T21:38:53.150Z,8.44
2022-09-27T21:41:21.320Z,8.38
2022-09-27T21:43:50.198Z,8.38
2022-09-27T21:46:20.471Z,8.37
2022-09-27T21:48:50.070Z,8.43
2022-09-27T21:51:22.712Z,8.51
2022-09-27T21:53:52.317Z,8.45
2022-09-27T21:56:21.458Z,8.41
2022-09-27T21:58:52.227Z,8.43
2022-09-27T22:01:22.648Z,8.43
2022-09-27T22:03:55.332Z,8.48
2022-09-27T22:06:26.748Z,8.44
2022-09-27T22:08:56.070Z,8.47
2022-09-27T22:11:26.790Z,8.48
2022-09-27T22:13:57.161Z,8.49
2022-09-27T22:16:26.747Z,8.51
2022-09-27T22:18:56.348Z,8.49
2022-09-27T22:21:27.686Z,8.53
2022-09-27T22:23:56.529Z,8.50
2022-09-27T22:26:25.966Z,8.44
2022-09-27T22:28:54.395Z,8.42
2022-09-27T22:31:23.385Z,8.47
2022-09-27T22:33:53.674Z,8.56
2022-09-27T22:36:22.525Z,8.47
2022-09-27T22:38:52.509Z,8.55
2022-09-27T22:41:21.166Z,8.48
2022-09-27T22:43:49.417Z,8.47
2022-09-27T22:46:17.454Z,8.51
2022-09-27T22:48:45.533Z,8.45
2022-09-27T22:51:13.794Z,8.46
2022-09-27T22:53:41.859Z,8.48
2022-09-27T22:56:14.359Z,8.42
2022-09-27T22:58:43.898Z,8.43
2022-09-27T23:01:14.443Z,8.40
2022-09-27T23:03:43.242Z,8.41
2022-09-27T23:06:11.552Z,8.40
2022-09-27T23:08:39.932Z,8.43
2022-09-27T23:11:15.050Z,8.41
2022-09-27T23:13:44.534Z,8.48
2022-09-27T23:16:14.064Z,8.54
2022-09-27T23:18:42.465Z,8.51
2022-09-27T23:21:12.815Z,8.52
2022-09-27T23:23:43.580Z,8.53
2022-09-27T23:26:14.534Z,8.52
2022-09-27T23:28:42.565Z,8.52
2022-09-27T23:31:13.375Z,8.60
2022-09-27T23:33:43.061Z,8.58
2022-09-27T23:36:14.920Z,8.55
2022-09-27T23:38:45.363Z,8.57
2022-09-27T23:41:15.526Z,8.52
2022-09-27T23:43:44.343Z,8.54
2022-09-27T23:46:12.832Z,8.53
2022-09-27T23:48:41.710Z,8.52
2022-09-27T23:51:11.646Z,8.51
2022-09-27T23:53:39.909Z,8.54
2022-09-27T23:56:09.573Z,8.53
2022-09-27T23:58:39.627Z,8.57
